Time;durP1;ratioP1;P1;durP2;ratioP2;P2;SDS_P1;SDS_P2;PMS_P1;PMS_P2;Temp;Humidity;BMP_temperature;BMP_pressure;BME280_temperature;BME280_humidity;BME280_pressure;Samples;Min_cycle;Max_cycle;Signal;HPM_P1;HPM_P2
2023/04/27 00:02:11;;;;;;;6.38;3.33;;;2.70;99.90;;;;;;5034749;28;20036;-57
2023/04/27 00:04:36;;;;;;;3.65;2.90;;;2.70;99.90;;;;;;5035490;28;20102;-58
2023/04/27 00:07:02;;;;;;;5.05;3.17;;;2.70;99.90;;;;;;5030929;28;20068;-58
2023/04/27 00:09:28;;;;;;;6.22;2.72;;;2.60;99.90;;;;;;5041626;28;20451;-58
2023/04/27 00:11:53;;;;;;;6.82;3.50;;;2.60;99.90;;;;;;5033930;28;20021;-58
2023/04/27 00:14:19;;;;;;;7.57;3.63;;;2.60;99.90;;;;;;5034873;28;20517;-58
2023/04/27 00:16:45;;;;;;;5.50;2.80;;;2.60;99.90;;;;;;5034365;28;20163;-58
2023/04/27 00:19:12;;;;;;;5.82;2.97;;;2.50;99.90;;;;;;5033862;28;20123;-57
2023/04/27 00:21:38;;;;;;;4.10;2.97;;;2.50;99.90;;;;;;5034555;28;20032;-58
2023/04/27 00:24:04;;;;;;;5.03;3.58;;;2.40;99.90;;;;;;5033500;28;20034;-57
2023/04/27 00:26:30;;;;;;;4.63;2.78;;;2.40;99.90;;;;;;5032448;28;20034;-55
2023/04/27 00:28:55;;;;;;;6.07;3.50;;;2.40;99.90;;;;;;5031010;28;20122;-56
2023/04/27 00:31:21;;;;;;;3.90;3.00;;;2.30;99.90;;;;;;5034280;28;20481;-57
2023/04/27 00:33:47;;;;;;;5.95;2.85;;;2.30;99.90;;;;;;5056010;22;20503;-47
2023/04/27 00:36:12;;;;;;;4.93;3.15;;;2.30;99.90;;;;;;5034209;28;20400;-52
2023/04/27 00:38:38;;;;;;;5.97;2.85;;;2.20;99.90;;;;;;5032745;28;20553;-53
2023/04/27 00:41:05;;;;;;;6.80;3.10;;;2.20;99.90;;;;;;5035127;28;20021;-48
2023/04/27 00:43:31;;;;;;;8.18;3.38;;;2.20;99.90;;;;;;5033629;28;20546;-50
2023/04/27 00:45:58;;;;;;;7.03;3.38;;;2.20;99.90;;;;;;5034813;28;20112;-52
2023/04/27 00:48:24;;;;;;;6.40;3.65;;;2.10;99.90;;;;;;5034353;28;20026;-49
2023/04/27 00:50:50;;;;;;;8.38;3.88;;;2.10;99.90;;;;;;5035185;28;20558;-50
2023/04/27 00:53:16;;;;;;;7.72;3.40;;;2.10;99.90;;;;;;5034709;28;20035;-49
2023/04/27 00:55:42;;;;;;;6.20;3.40;;;2.10;99.90;;;;;;5034655;28;20089;-48
2023/04/27 00:58:08;;;;;;;8.25;3.70;;;2.00;99.90;;;;;;5032371;28;20063;-51
2023/04/27 01:00:37;;;;;;;7.53;3.58;;;2.00;99.90;;;;;;5032534;28;20108;-51
2023/04/27 01:03:03;;;;;;;8.30;3.28;;;2.00;99.90;;;;;;5047244;28;20064;-50
2023/04/27 01:05:29;;;;;;;5.68;3.60;;;2.00;99.90;;;;;;5040451;28;20602;-50
2023/04/27 01:07:55;;;;;;;7.55;3.67;;;1.90;99.90;;;;;;5034950;28;20017;-49
2023/04/27 01:10:20;;;;;;;6.40;3.47;;;1.90;99.90;;;;;;5030836;28;20048;-50
2023/04/27 01:12:46;;;;;;;6.03;3.30;;;1.90;99.90;;;;;;5034747;28;20025;-50
2023/04/27 01:15:12;;;;;;;3.88;3.10;;;1.90;99.90;;;;;;5035287;28;20021;-50
2023/04/27 01:17:37;;;;;;;3.45;2.67;;;1.90;99.90;;;;;;5034403;28;20029;-49
2023/04/27 01:20:06;;;;;;;7.30;3.30;;;1.90;99.90;;;;;;5035207;28;20715;-50
2023/04/27 01:22:31;;;;;;;6.13;3.58;;;1.90;99.90;;;;;;5034499;28;20017;-49
2023/04/27 01:24:57;;;;;;;5.43;3.50;;;1.90;99.90;;;;;;5033193;28;20694;-51
2023/04/27 01:27:23;;;;;;;9.98;3.88;;;1.90;99.90;;;;;;5034008;28;20029;-50
2023/04/27 01:29:49;;;;;;;5.10;3.50;;;1.90;99.90;;;;;;5035107;28;20546;-52
2023/04/27 01:32:15;;;;;;;7.90;3.70;;;1.90;99.90;;;;;;5033824;28;20117;-48
2023/04/27 01:34:40;;;;;;;7.05;4.05;;;2.00;99.90;;;;;;5033492;28;20030;-48
2023/04/27 01:37:06;;;;;;;5.57;3.95;;;2.00;99.90;;;;;;5034174;28;20536;-53
2023/04/27 01:39:32;;;;;;;4.93;3.70;;;2.10;99.90;;;;;;5034314;28;20401;-48
2023/04/27 01:41:57;;;;;;;4.50;3.75;;;2.10;99.90;;;;;;5033547;28;20495;-51
2023/04/27 01:44:23;;;;;;;8.40;3.72;;;2.10;99.90;;;;;;5034741;28;20447;-50
2023/04/27 01:46:49;;;;;;;5.65;3.50;;;2.10;99.90;;;;;;5034196;28;20032;-49
2023/04/27 01:49:15;;;;;;;6.03;4.40;;;2.10;99.90;;;;;;5034901;28;20380;-49
2023/04/27 01:51:40;;;;;;;5.72;3.42;;;2.10;99.90;;;;;;5033409;28;20430;-49
2023/04/27 01:54:06;;;;;;;8.68;3.72;;;2.10;99.90;;;;;;5033612;28;20036;-48
2023/04/27 01:56:32;;;;;;;6.65;4.30;;;2.10;99.90;;;;;;5031512;28;20037;-51
2023/04/27 01:58:58;;;;;;;6.68;3.97;;;2.10;99.90;;;;;;5033569;28;20033;-49
2023/04/27 02:01:24;;;;;;;8.32;3.75;;;2.10;99.90;;;;;;5034402;28;20038;-51
2023/04/27 02:03:49;;;;;;;6.28;3.65;;;2.10;99.90;;;;;;5034184;28;20025;-49
2023/04/27 02:06:15;;;;;;;7.75;4.03;;;2.10;99.90;;;;;;5033222;28;20533;-50
2023/04/27 02:08:40;;;;;;;6.45;3.70;;;2.10;99.90;;;;;;5031349;28;20083;-48
2023/04/27 02:11:06;;;;;;;7.55;4.53;;;2.10;99.90;;;;;;5033118;28;20049;-48
2023/04/27 02:13:31;;;;;;;7.35;3.78;;;2.20;99.90;;;;;;5034535;28;20030;-51
2023/04/27 02:15:57;;;;;;;7.20;3.92;;;2.30;99.90;;;;;;5035709;28;20031;-51
2023/04/27 02:18:23;;;;;;;7.72;4.07;;;2.30;99.90;;;;;;5036786;28;20120;-49
2023/04/27 02:20:49;;;;;;;6.03;3.42;;;2.30;99.90;;;;;;5037985;28;20009;-48
2023/04/27 02:23:15;;;;;;;8.00;3.55;;;2.30;99.90;;;;;;5036036;28;20093;-48
2023/04/27 02:25:45;;;;;;;6.30;3.53;;;2.30;99.90;;;;;;5037826;28;20448;-49
2023/04/27 02:28:11;;;;;;;8.70;4.00;;;2.30;99.90;;;;;;5036458;28;20035;-49
2023/04/27 02:30:37;;;;;;;9.57;3.47;;;2.40;99.90;;;;;;5036884;28;20041;-53
2023/04/27 02:33:03;;;;;;;7.00;3.72;;;2.40;99.90;;;;;;5037116;28;20048;-50
2023/04/27 02:35:31;;;;;;;5.88;3.65;;;2.40;99.90;;;;;;5037068;28;20464;-49
2023/04/27 02:37:56;;;;;;;4.30;3.50;;;2.40;99.90;;;;;;5037321;28;20072;-52
2023/04/27 02:40:22;;;;;;;7.35;4.05;;;2.40;99.90;;;;;;5035463;28;20053;-54
2023/04/27 02:42:48;;;;;;;6.25;3.38;;;2.40;99.90;;;;;;5037065;28;20048;-52
2023/04/27 02:45:13;;;;;;;4.85;3.22;;;2.40;99.90;;;;;;5036929;28;20045;-50
2023/04/27 02:47:39;;;;;;;6.47;3.25;;;2.40;99.90;;;;;;5035281;28;20045;-51
2023/04/27 02:50:06;;;;;;;4.05;3.25;;;2.40;99.90;;;;;;5035769;28;20037;-51
2023/04/27 02:52:32;;;;;;;7.55;3.25;;;2.40;99.90;;;;;;5036159;28;20371;-49
2023/04/27 02:54:57;;;;;;;5.35;3.53;;;2.30;99.90;;;;;;5037063;28;20546;-48
2023/04/27 02:57:23;;;;;;;8.60;3.60;;;2.30;99.90;;;;;;5037218;28;20116;-49
2023/04/27 02:59:49;;;;;;;5.75;3.53;;;2.30;99.90;;;;;;5036272;28;20031;-49
2023/04/27 03:02:14;;;;;;;6.35;3.35;;;2.30;99.90;;;;;;5036351;28;20556;-50
2023/04/27 03:04:40;;;;;;;8.07;3.75;;;2.30;99.90;;;;;;5036060;28;20033;-47
2023/04/27 03:07:06;;;;;;;6.60;4.00;;;2.30;99.90;;;;;;5034134;28;20458;-48
2023/04/27 03:09:32;;;;;;;6.70;3.83;;;2.30;99.90;;;;;;5036272;28;20112;-48
2023/04/27 03:11:57;;;;;;;6.43;3.33;;;2.30;99.90;;;;;;5035101;28;20091;-48
2023/04/27 03:14:23;;;;;;;7.10;3.67;;;2.30;99.90;;;;;;5036943;28;20056;-55
2023/04/27 03:16:48;;;;;;;6.30;3.08;;;2.30;99.90;;;;;;5036459;28;20060;-52
2023/04/27 03:19:14;;;;;;;4.38;3.42;;;2.30;99.90;;;;;;5036679;28;20064;-52
2023/04/27 03:21:40;;;;;;;6.45;3.72;;;2.30;99.90;;;;;;5036413;28;20064;-49
2023/04/27 03:24:05;;;;;;;6.28;3.22;;;2.30;99.90;;;;;;5036510;28;20037;-49
2023/04/27 03:26:31;;;;;;;3.80;3.30;;;2.30;99.90;;;;;;5034751;28;20527;-51
2023/04/27 03:28:56;;;;;;;8.25;3.88;;;2.20;99.90;;;;;;5036174;28;20041;-48
2023/04/27 03:31:22;;;;;;;5.20;3.67;;;2.20;99.90;;;;;;5036035;28;20048;-48
2023/04/27 03:33:48;;;;;;;7.15;3.60;;;2.20;99.90;;;;;;5036601;28;20515;-51
2023/04/27 03:36:14;;;;;;;6.75;3.78;;;2.10;99.90;;;;;;5036552;28;20577;-51
2023/04/27 03:38:39;;;;;;;5.00;3.55;;;2.10;99.90;;;;;;5035885;28;20044;-53
2023/04/27 03:41:05;;;;;;;5.82;3.58;;;2.00;99.90;;;;;;5035934;28;20028;-51
2023/04/27 03:43:30;;;;;;;5.15;3.60;;;2.00;99.90;;;;;;5036045;28;20483;-50
2023/04/27 03:45:56;;;;;;;6.05;3.85;;;2.00;99.90;;;;;;5035590;28;20412;-49
2023/04/27 03:48:22;;;;;;;7.40;3.47;;;1.90;99.90;;;;;;5034379;28;20538;-51
2023/04/27 03:50:48;;;;;;;5.30;3.47;;;1.90;99.90;;;;;;5035544;28;20017;-52
2023/04/27 03:53:14;;;;;;;6.53;3.75;;;1.80;99.90;;;;;;5034785;28;20057;-48
2023/04/27 03:55:41;;;;;;;8.38;4.20;;;1.70;99.90;;;;;;5035880;28;20044;-50
2023/04/27 03:58:09;;;;;;;9.02;4.07;;;1.70;99.90;;;;;;5034221;28;20047;-54
2023/04/27 04:00:35;;;;;;;8.18;4.53;;;1.70;99.90;;;;;;5034626;28;20033;-51
2023/04/27 04:03:01;;;;;;;8.02;4.70;;;1.70;99.90;;;;;;5035344;28;20107;-50
2023/04/27 04:05:26;;;;;;;11.50;4.57;;;1.60;99.90;;;;;;5036396;28;20033;-50
2023/04/27 04:07:52;;;;;;;8.80;5.03;;;1.60;99.90;;;;;;5034520;28;20075;-49
2023/04/27 04:10:18;;;;;;;8.27;4.70;;;1.60;99.90;;;;;;5034781;28;20597;-50
2023/04/27 04:12:43;;;;;;;5.32;3.92;;;1.60;99.90;;;;;;5035116;28;20072;-52
2023/04/27 04:15:10;;;;;;;7.97;4.18;;;1.60;99.90;;;;;;5035608;28;20040;-49
2023/04/27 04:17:35;;;;;;;11.75;4.40;;;1.60;99.90;;;;;;5034788;28;20025;-49
2023/04/27 04:20:05;;;;;;;6.93;4.07;;;1.60;99.90;;;;;;5034597;28;20044;-51
2023/04/27 04:22:31;;;;;;;8.07;4.78;;;1.60;99.90;;;;;;5034304;28;20022;-52
2023/04/27 04:24:56;;;;;;;5.75;4.20;;;1.70;99.90;;;;;;5034885;28;20082;-48
2023/04/27 04:27:22;;;;;;;6.20;4.25;;;1.70;99.90;;;;;;5034253;28;20029;-52
2023/04/27 04:29:47;;;;;;;5.57;3.60;;;1.80;99.90;;;;;;5033811;28;20029;-50
2023/04/27 04:32:16;;;;;;;6.22;4.18;;;1.90;99.90;;;;;;5033196;28;20029;-55
2023/04/27 04:34:42;;;;;;;5.97;3.90;;;2.00;99.90;;;;;;5035405;28;20038;-52
2023/04/27 04:37:07;;;;;;;10.48;4.53;;;2.10;99.90;;;;;;5034067;28;20106;-52
2023/04/27 04:39:33;;;;;;;5.60;4.15;;;2.20;99.90;;;;;;5034031;28;20478;-48
2023/04/27 04:41:59;;;;;;;6.65;3.78;;;2.20;99.90;;;;;;5034172;28;20128;-52
2023/04/27 04:44:24;;;;;;;5.13;3.50;;;2.30;99.90;;;;;;5034915;28;20026;-52
2023/04/27 04:46:50;;;;;;;7.72;3.67;;;2.30;99.90;;;;;;5033576;28;20029;-49
2023/04/27 04:49:16;;;;;;;7.43;4.85;;;2.40;99.90;;;;;;5035115;28;20061;-50
2023/04/27 04:51:43;;;;;;;6.32;3.65;;;2.40;99.90;;;;;;5034240;28;20029;-55
2023/04/27 04:54:08;;;;;;;7.75;4.07;;;2.50;99.90;;;;;;5034475;28;20020;-53
2023/04/27 04:56:35;;;;;;;5.82;3.97;;;2.50;99.90;;;;;;5032981;28;20027;-50
2023/04/27 04:59:00;;;;;;;7.97;4.53;;;2.50;99.90;;;;;;5033511;28;20022;-48
2023/04/27 05:01:26;;;;;;;4.95;4.00;;;2.50;99.90;;;;;;5033040;28;20466;-50
2023/04/27 05:03:52;;;;;;;7.28;4.57;;;2.50;99.90;;;;;;5034846;28;20029;-47
2023/04/27 05:06:17;;;;;;;7.00;4.28;;;2.60;99.90;;;;;;5033490;28;20117;-51
2023/04/27 05:08:43;;;;;;;6.00;3.70;;;2.60;99.90;;;;;;5034163;28;20112;-49
2023/04/27 05:11:08;;;;;;;7.63;4.03;;;2.60;99.90;;;;;;5034216;28;20490;-49
2023/04/27 05:13:34;;;;;;;5.38;3.90;;;2.50;99.90;;;;;;5034225;28;20033;-52
2023/04/27 05:16:04;;;;;;;7.18;4.15;;;2.60;99.90;;;;;;5034050;28;20052;-48
2023/04/27 05:18:30;;;;;;;6.78;3.92;;;2.50;99.90;;;;;;5032692;28;20025;-50
2023/04/27 05:20:55;;;;;;;6.60;3.85;;;2.60;99.90;;;;;;5034635;28;20035;-52
2023/04/27 05:23:21;;;;;;;8.13;4.60;;;2.60;99.90;;;;;;5033842;28;20521;-50
2023/04/27 05:25:46;;;;;;;7.22;4.50;;;2.70;99.90;;;;;;5033776;28;20033;-51
2023/04/27 05:28:12;;;;;;;7.65;4.22;;;2.70;99.90;;;;;;5034409;28;20112;-47
2023/04/27 05:30:37;;;;;;;6.45;4.38;;;2.70;99.90;;;;;;5033044;28;20132;-51
2023/04/27 05:33:03;;;;;;;6.22;3.92;;;2.80;99.90;;;;;;5034920;28;20488;-52
2023/04/27 05:35:30;;;;;;;6.15;3.75;;;2.80;99.90;;;;;;5034435;28;20025;-52
2023/04/27 05:37:56;;;;;;;5.78;3.95;;;2.80;99.90;;;;;;5033746;28;20052;-52
2023/04/27 05:40:22;;;;;;;10.82;4.10;;;2.90;99.90;;;;;;5032987;28;20040;-52
2023/04/27 05:42:48;;;;;;;9.32;4.10;;;2.90;99.90;;;;;;5033282;28;20040;-50
2023/04/27 05:45:14;;;;;;;6.72;4.55;;;3.00;99.90;;;;;;5034625;28;20021;-50
2023/04/27 05:47:40;;;;;;;5.78;4.47;;;3.00;99.90;;;;;;5033445;28;20039;-50
2023/04/27 05:50:06;;;;;;;7.32;3.78;;;3.10;99.90;;;;;;5035153;28;20034;-51
2023/04/27 05:52:32;;;;;;;14.75;5.03;;;3.20;99.90;;;;;;5038212;28;20104;-50
2023/04/27 05:54:57;;;;;;;7.88;4.18;;;3.20;99.90;;;;;;5038173;28;20030;-50
2023/04/27 05:57:24;;;;;;;7.82;4.00;;;3.20;99.90;;;;;;5036918;28;20029;-48
2023/04/27 05:59:50;;;;;;;7.05;4.38;;;3.30;99.90;;;;;;5037328;28;20036;-51
2023/04/27 06:02:16;;;;;;;5.72;3.97;;;3.40;99.90;;;;;;5037385;28;20034;-51
2023/04/27 06:04:42;;;;;;;8.07;4.28;;;3.40;99.90;;;;;;5038264;28;20026;-50
2023/04/27 06:07:11;;;;;;;8.70;4.18;;;3.50;99.90;;;;;;5036249;28;20036;-48
2023/04/27 06:09:37;;;;;;;8.02;4.40;;;3.50;99.90;;;;;;5037105;28;20029;-50
2023/04/27 06:12:07;;;;;;;7.05;4.22;;;3.50;99.90;;;;;;5035844;28;20538;-51
2023/04/27 06:14:34;;;;;;;7.22;4.20;;;3.60;99.90;;;;;;5037670;28;20021;-53
2023/04/27 06:17:00;;;;;;;6.07;3.65;;;3.70;99.90;;;;;;5035888;28;20024;-49
2023/04/27 06:19:26;;;;;;;4.55;3.72;;;3.80;99.90;;;;;;5036126;28;20399;-50
2023/04/27 06:21:53;;;;;;;10.43;4.43;;;3.90;99.90;;;;;;5037278;28;20061;-48
2023/04/27 06:24:19;;;;;;;7.00;3.38;;;4.00;99.90;;;;;;5036258;28;20550;-48
2023/04/27 06:26:45;;;;;;;9.25;3.95;;;4.10;99.90;;;;;;5036842;28;20048;-51
2023/04/27 06:29:10;;;;;;;5.40;4.00;;;4.20;99.90;;;;;;5035986;28;20168;-49
2023/04/27 06:31:36;;;;;;;5.47;4.00;;;4.30;99.90;;;;;;5037283;28;20052;-48
2023/04/27 06:34:03;;;;;;;6.20;4.00;;;4.40;99.90;;;;;;5057189;22;20064;-54
2023/04/27 06:36:28;;;;;;;6.75;3.55;;;4.50;99.90;;;;;;5022686;28;20028;-57
2023/04/27 06:38:55;;;;;;;6.03;3.15;;;4.60;99.90;;;;;;5024816;28;20021;-57
2023/04/27 06:41:24;;;;;;;6.03;3.45;;;4.80;99.90;;;;;;5026473;28;20028;-56
2023/04/27 06:43:50;;;;;;;5.70;3.45;;;4.90;99.90;;;;;;5026220;28;20027;-58
2023/04/27 06:46:16;;;;;;;10.55;4.20;;;5.10;99.90;;;;;;5027355;28;20041;-55
2023/04/27 06:48:42;;;;;;;8.57;4.47;;;5.30;99.90;;;;;;5026807;28;20029;-58
2023/04/27 06:51:07;;;;;;;10.90;3.15;;;5.40;99.90;;;;;;5027350;28;20026;-56
2023/04/27 06:53:33;;;;;;;5.28;2.95;;;5.60;99.90;;;;;;5026532;28;20478;-57
2023/04/27 06:55:58;;;;;;;10.57;3.10;;;5.90;99.90;;;;;;5027000;28;20026;-58
2023/04/27 06:58:25;;;;;;;5.30;2.88;;;6.10;99.90;;;;;;5026296;28;20033;-58
2023/04/27 07:00:51;;;;;;;7.07;3.08;;;6.30;99.90;;;;;;5025788;28;20123;-56
2023/04/27 07:03:17;;;;;;;8.40;3.30;;;6.50;99.90;;;;;;5015062;28;20124;-58
2023/04/27 07:05:43;;;;;;;4.70;2.72;;;6.70;99.90;;;;;;5026567;28;20033;-57
2023/04/27 07:08:08;;;;;;;5.63;2.90;;;6.90;99.90;;;;;;5026272;28;20029;-56
2023/04/27 07:10:34;;;;;;;4.65;2.55;;;7.20;99.90;;;;;;5025476;28;20068;-57
2023/04/27 07:12:59;;;;;;;4.45;3.03;;;7.30;99.90;;;;;;5026650;28;20066;-57
2023/04/27 07:15:25;;;;;;;3.65;2.38;;;7.30;99.90;;;;;;5026622;28;20113;-58
2023/04/27 07:17:54;;;;;;;6.70;2.70;;;7.30;99.90;;;;;;5026454;28;20653;-58
2023/04/27 07:20:20;;;;;;;3.35;2.53;;;7.30;99.90;;;;;;5026084;28;20029;-56
2023/04/27 07:22:45;;;;;;;3.75;2.58;;;7.40;99.90;;;;;;5026624;28;20107;-57
2023/04/27 07:25:11;;;;;;;5.43;2.60;;;7.50;99.90;;;;;;5014524;28;20033;-58
2023/04/27 07:27:37;;;;;;;3.67;2.63;;;7.50;99.90;;;;;;5025130;28;20034;-58
2023/04/27 07:30:04;;;;;;;5.53;3.08;;;7.80;99.90;;;;;;5025962;28;20109;-58
2023/04/27 07:32:30;;;;;;;5.60;2.75;;;8.10;99.90;;;;;;5025337;28;20109;-58
2023/04/27 07:34:56;;;;;;;4.32;2.50;;;8.20;99.90;;;;;;5026034;28;20534;-58
2023/04/27 07:37:22;;;;;;;3.08;2.10;;;8.40;99.90;;;;;;5025853;28;20017;-56
2023/04/27 07:39:49;;;;;;;4.75;2.25;;;8.70;99.90;;;;;;5025912;28;20029;-57
2023/04/27 07:42:15;;;;;;;4.50;2.15;;;8.80;99.90;;;;;;5023615;28;20485;-58
2023/04/27 07:44:41;;;;;;;3.90;2.30;;;9.00;99.90;;;;;;5023787;28;20105;-55
2023/04/27 07:47:07;;;;;;;3.53;2.05;;;8.90;99.90;;;;;;5024823;28;20124;-57
2023/04/27 07:49:34;;;;;;;3.78;1.70;;;8.80;99.90;;;;;;5024622;28;20021;-55
2023/04/27 07:52:00;;;;;;;6.63;2.13;;;8.70;99.90;;;;;;5025029;28;20037;-57
2023/04/27 07:54:26;;;;;;;2.90;1.80;;;9.00;99.90;;;;;;5025095;28;20513;-58
2023/04/27 07:56:52;;;;;;;2.97;1.90;;;9.30;99.90;;;;;;5025067;28;20109;-55
2023/04/27 07:59:18;;;;;;;3.90;2.00;;;9.30;99.90;;;;;;5024653;28;20025;-57
2023/04/27 08:01:44;;;;;;;3.08;1.67;;;9.00;99.90;;;;;;5023641;28;20048;-58
2023/04/27 08:04:11;;;;;;;2.65;2.08;;;8.90;99.90;;;;;;5025289;28;20116;-57
2023/04/27 08:06:37;;;;;;;3.40;1.70;;;8.90;99.90;;;;;;5023961;28;20052;-55
2023/04/27 08:09:03;;;;;;;1.77;1.67;;;8.90;99.90;;;;;;5024786;28;20068;-56
2023/04/27 08:11:29;;;;;;;6.70;2.03;;;8.90;99.90;;;;;;5024170;28;20462;-57
2023/04/27 08:13:54;;;;;;;2.58;2.00;;;9.00;99.90;;;;;;5013910;28;20022;-57
2023/04/27 08:16:20;;;;;;;3.25;2.10;;;9.20;99.90;;;;;;5024882;28;20557;-56
2023/04/27 08:18:46;;;;;;;4.35;1.52;;;9.10;99.90;;;;;;5024308;28;20484;-57
2023/04/27 08:21:11;;;;;;;3.67;2.35;;;8.90;99.90;;;;;;5023766;28;20057;-55
2023/04/27 08:23:37;;;;;;;2.70;1.85;;;8.70;99.90;;;;;;5024264;28;20060;-57
2023/04/27 08:26:03;;;;;;;7.20;2.38;;;8.60;99.90;;;;;;5024797;28;20025;-56
2023/04/27 08:28:29;;;;;;;1.98;1.52;;;8.40;99.90;;;;;;5023984;28;20040;-54
2023/04/27 08:30:54;;;;;;;7.22;2.60;;;8.30;99.90;;;;;;5005808;28;20415;-60
2023/04/27 08:33:20;;;;;;;2.80;1.95;;;8.20;99.90;;;;;;5024000;28;20028;-57
2023/04/27 08:35:46;;;;;;;2.97;1.83;;;8.20;99.90;;;;;;5024002;28;20033;-56
2023/04/27 08:38:11;;;;;;;4.10;1.83;;;8.30;99.90;;;;;;5024062;28;20842;-55
2023/04/27 08:40:42;;;;;;;4.10;1.73;;;8.50;99.90;;;;;;5024419;28;20248;-58
2023/04/27 08:43:08;;;;;;;2.63;2.08;;;8.80;99.90;;;;;;5023685;28;20461;-57
2023/04/27 08:45:33;;;;;;;4.45;2.20;;;9.30;99.90;;;;;;5024073;28;20034;-57
2023/04/27 08:48:00;;;;;;;4.35;1.80;;;9.50;99.90;;;;;;5023638;28;20111;-58
2023/04/27 08:50:26;;;;;;;4.82;2.10;;;9.90;99.90;;;;;;5023655;28;20079;-57
2023/04/27 08:52:52;;;;;;;4.45;1.98;;;10.20;99.90;;;;;;5023857;28;20022;-56
2023/04/27 08:55:18;;;;;;;4.65;2.33;;;10.30;99.90;;;;;;5024035;28;20565;-57
2023/04/27 08:57:55;;;;;;;2.70;1.50;;;10.10;99.90;;;;;;5023276;28;20079;-58
2023/04/27 09:00:20;;;;;;;4.22;1.88;;;9.90;99.90;;;;;;5023604;28;20120;-56
2023/04/27 09:02:47;;;;;;;4.43;2.17;;;9.80;99.90;;;;;;5023573;28;20048;-58
2023/04/27 09:05:19;;;;;;;4.85;2.40;;;10.00;99.90;;;;;;5023644;28;20049;-56
2023/04/27 09:08:07;;;;;;;4.75;1.70;;;10.10;99.90;;;;;;5023051;28;20072;-58
2023/04/27 09:10:49;;;;;;;2.72;1.48;;;9.80;99.90;;;;;;5023650;28;20104;-58
2023/04/27 09:13:15;;;;;;;3.00;1.63;;;9.60;99.90;;;;;;5005083;28;20021;-56
2023/04/27 09:15:45;;;;;;;5.20;1.60;;;9.20;99.90;;;;;;5023436;28;20092;-57
2023/04/27 09:18:18;;;;;;;3.15;1.73;;;8.90;99.90;;;;;;5023679;28;20060;-57
2023/04/27 09:20:45;;;;;;;3.47;1.60;;;8.90;99.90;;;;;;5022936;28;20179;-57
2023/04/27 09:23:10;;;;;;;2.55;1.85;;;9.10;99.90;;;;;;5023115;28;20029;-58
2023/04/27 09:25:36;;;;;;;4.15;1.88;;;9.30;99.90;;;;;;5009285;28;20569;-55
2023/04/27 09:28:01;;;;;;;4.85;2.20;;;9.70;99.90;;;;;;5026596;28;20120;-58
2023/04/27 09:30:28;;;;;;;6.00;1.98;;;10.10;99.90;;;;;;5016412;28;20030;-55
2023/04/27 09:33:02;;;;;;;2.15;1.77;;;10.20;99.00;;;;;;5027932;28;20014;-57
2023/04/27 09:35:33;;;;;;;2.30;1.77;;;10.50;99.90;;;;;;5027041;28;20061;-58
2023/04/27 09:37:59;;;;;;;3.50;1.95;;;10.90;99.50;;;;;;5026909;28;20036;-55
2023/04/27 09:40:28;;;;;;;3.30;1.42;;;11.00;99.70;;;;;;5027767;28;20025;-54
2023/04/27 09:42:55;;;;;;;1.88;1.52;;;11.00;98.90;;;;;;5026767;28;20025;-57
2023/04/27 09:45:25;;;;;;;1.77;1.52;;;10.80;97.20;;;;;;5025887;28;20059;-56
2023/04/27 09:47:51;;;;;;;1.75;1.65;;;10.50;95.90;;;;;;5027065;28;20029;-55
2023/04/27 09:50:17;;;;;;;3.47;1.83;;;10.20;98.60;;;;;;5026722;28;20087;-56
2023/04/27 09:52:44;;;;;;;2.83;1.85;;;10.20;99.80;;;;;;5015658;28;20492;-54
2023/04/27 09:55:15;;;;;;;2.10;1.50;;;10.00;98.80;;;;;;5027488;28;20042;-57
2023/04/27 09:58:01;;;;;;;3.28;1.95;;;10.10;98.90;;;;;;5026293;28;20136;-53
2023/04/27 10:00:52;;;;;;;2.90;1.48;;;10.40;99.30;;;;;;5026566;28;20037;-57
2023/04/27 10:03:26;;;;;;;3.22;1.73;;;10.80;98.20;;;;;;5027404;28;20396;-58
2023/04/27 10:06:13;;;;;;;1.65;1.52;;;11.10;98.80;;;;;;5026677;28;20029;-56
2023/04/27 10:08:40;;;;;;;2.80;1.92;;;11.30;98.90;;;;;;5025951;28;20033;-54
2023/04/27 10:11:14;;;;;;;2.63;1.58;;;11.30;96.00;;;;;;5009225;28;20550;-58
2023/04/27 10:13:51;;;;;;;1.63;1.40;;;11.20;94.80;;;;;;5017140;28;20041;-59
2023/04/27 10:16:17;;;;;;;6.35;1.77;;;11.10;98.30;;;;;;5026702;28;20566;-56
2023/04/27 10:18:53;;;;;;;2.92;1.50;;;11.20;96.40;;;;;;5025364;28;20104;-54
2023/04/27 10:21:19;;;;;;;2.47;1.52;;;11.20;95.70;;;;;;5027011;28;20096;-59
2023/04/27 10:23:47;;;;;;;2.50;1.50;;;11.20;95.80;;;;;;5027111;28;20034;-55
2023/04/27 10:26:29;;;;;;;3.85;1.67;;;11.30;95.00;;;;;;5026515;28;20600;-56
2023/04/27 10:28:56;;;;;;;4.40;1.70;;;11.40;95.20;;;;;;5026909;28;20032;-55
2023/04/27 10:31:28;;;;;;;4.55;1.30;;;11.40;94.70;;;;;;5025802;28;20511;-57
2023/04/27 10:34:25;;;;;;;1.15;1.00;;;11.40;95.00;;;;;;5008730;28;20028;-57
2023/04/27 10:37:07;;;;;;;7.07;1.83;;;11.60;97.90;;;;;;5026775;28;20116;-57
2023/04/27 10:39:36;;;;;;;2.55;1.50;;;11.50;95.70;;;;;;5026453;28;20113;-56
2023/04/27 10:42:02;;;;;;;2.22;1.67;;;11.40;96.20;;;;;;5008605;28;20028;-58
2023/04/27 10:44:29;;;;;;;3.60;1.70;;;11.20;94.00;;;;;;5026519;28;20034;-58
2023/04/27 10:46:58;;;;;;;2.83;1.58;;;11.10;93.00;;;;;;5026240;28;20418;-58
2023/04/27 10:49:26;;;;;;;5.15;1.67;;;10.90;95.50;;;;;;5009041;28;20695;-54
2023/04/27 10:51:52;;;;;;;4.28;1.88;;;10.70;95.40;;;;;;5026668;28;20018;-56
2023/04/27 10:54:18;;;;;;;2.70;2.03;;;10.50;96.10;;;;;;5026305;28;20102;-58
2023/04/27 10:56:44;;;;;;;4.25;1.75;;;10.40;96.60;;;;;;5025404;28;20491;-58
2023/04/27 10:59:09;;;;;;;1.60;1.20;;;10.20;97.30;;;;;;5026150;28;20017;-57
2023/04/27 11:01:36;;;;;;;2.42;1.55;;;10.20;96.60;;;;;;5025870;28;20044;-58
2023/04/27 11:04:02;;;;;;;4.85;2.17;;;10.10;95.80;;;;;;5026145;28;20040;-57
2023/04/27 11:06:29;;;;;;;4.25;2.20;;;9.80;96.80;;;;;;5025550;28;20056;-57
2023/04/27 11:08:55;;;;;;;1.98;1.73;;;9.70;97.80;;;;;;5007520;28;20025;-59
2023/04/27 11:11:21;;;;;;;5.35;2.20;;;9.60;99.90;;;;;;5025623;28;20368;-58
2023/04/27 11:13:48;;;;;;;3.22;2.08;;;9.60;99.10;;;;;;5008622;28;20029;-58
2023/04/27 11:16:15;;;;;;;4.47;2.08;;;9.60;99.90;;;;;;5025532;28;20053;-57
2023/04/27 11:18:40;;;;;;;4.82;2.15;;;9.50;99.90;;;;;;5024573;28;20038;-57
2023/04/27 11:21:15;;;;;;;4.13;2.53;;;9.60;99.90;;;;;;5025674;28;20045;-56
2023/04/27 11:23:41;;;;;;;2.80;2.15;;;9.70;99.90;;;;;;5024385;28;20032;-57
2023/04/27 11:26:10;;;;;;;3.42;2.17;;;9.70;99.90;;;;;;5024974;28;20250;-58
2023/04/27 11:28:35;;;;;;;5.18;2.28;;;9.60;99.90;;;;;;5025195;28;20550;-58
2023/04/27 11:31:03;;;;;;;5.28;2.40;;;9.60;99.90;;;;;;5025321;28;20041;-57
2023/04/27 11:33:29;;;;;;;3.08;2.50;;;9.70;99.90;;;;;;5024889;28;20422;-58
2023/04/27 11:35:55;;;;;;;4.18;2.40;;;9.80;99.90;;;;;;5008654;28;20057;-57
2023/04/27 11:38:21;;;;;;;2.45;1.90;;;10.00;99.90;;;;;;5013064;28;20123;-57
2023/04/27 11:41:05;;;;;;;3.42;1.90;;;10.10;98.50;;;;;;5025180;28;20013;-58
2023/04/27 11:43:31;;;;;;;2.38;2.00;;;10.10;98.70;;;;;;5007109;28;20076;-59
2023/04/27 11:45:57;;;;;;;3.95;2.17;;;10.30;99.90;;;;;;5024589;28;20396;-58
2023/04/27 11:48:27;;;;;;;2.22;1.80;;;10.40;98.30;;;;;;5024124;28;20142;-57
2023/04/27 11:50:53;;;;;;;2.80;1.70;;;10.40;97.20;;;;;;5024606;28;20026;-58
2023/04/27 11:53:39;;;;;;;2.75;1.60;;;10.50;98.70;;;;;;5024947;28;20028;-57
2023/04/27 11:56:09;;;;;;;3.25;1.95;;;10.60;98.10;;;;;;5006397;28;20026;-58
2023/04/27 11:58:36;;;;;;;3.75;1.50;;;10.70;98.00;;;;;;5007448;28;20148;-60
2023/04/27 12:01:05;;;;;;;2.70;1.70;;;10.70;98.00;;;;;;5006930;28;20526;-59
2023/04/27 12:03:31;;;;;;;4.07;1.98;;;10.80;98.10;;;;;;5025115;28;20025;-58
2023/04/27 12:05:57;;;;;;;2.22;2.03;;;10.80;97.30;;;;;;5024642;28;20031;-59
2023/04/27 12:08:23;;;;;;;3.92;1.80;;;10.80;98.90;;;;;;5023619;28;20026;-57
2023/04/27 12:10:49;;;;;;;3.50;1.88;;;10.70;96.20;;;;;;5024599;28;20021;-57
2023/04/27 12:13:15;;;;;;;2.33;2.05;;;10.70;96.80;;;;;;5024092;28;20024;-58
2023/04/27 12:15:44;;;;;;;5.35;1.85;;;10.60;97.40;;;;;;5024387;28;20579;-58
2023/04/27 12:18:10;;;;;;;3.72;2.15;;;10.60;97.50;;;;;;5023655;28;20056;-59
2023/04/27 12:20:36;;;;;;;3.67;2.50;;;10.60;97.60;;;;;;5024859;28;20487;-59
2023/04/27 12:23:02;;;;;;;2.38;2.03;;;10.50;97.70;;;;;;5023931;28;20080;-56
2023/04/27 12:25:27;;;;;;;3.17;1.88;;;10.40;97.40;;;;;;5024598;28;20800;-56
2023/04/27 12:27:53;;;;;;;4.57;2.83;;;10.30;97.50;;;;;;5023999;28;20033;-57
2023/04/27 12:30:20;;;;;;;3.45;2.28;;;10.30;98.70;;;;;;5024421;28;20028;-59
2023/04/27 12:32:46;;;;;;;4.45;3.20;;;10.30;98.80;;;;;;5024485;28;20021;-60
2023/04/27 12:35:11;;;;;;;3.65;2.38;;;10.50;99.90;;;;;;5047502;23;20061;-50
2023/04/27 12:37:38;;;;;;;3.25;2.10;;;10.40;98.80;;;;;;5022377;28;20034;-52
2023/04/27 12:40:07;;;;;;;3.45;2.13;;;10.40;99.10;;;;;;5023627;28;20025;-54
2023/04/27 12:42:34;;;;;;;5.63;2.60;;;10.50;98.90;;;;;;5023084;28;20628;-48
2023/04/27 12:45:00;;;;;;;3.67;1.88;;;10.40;99.00;;;;;;5021079;28;20053;-51
2023/04/27 12:47:26;;;;;;;4.15;1.92;;;10.40;99.00;;;;;;5013378;28;20033;-48
2023/04/27 12:49:52;;;;;;;3.58;1.92;;;10.30;98.20;;;;;;5014108;28;20105;-48
2023/04/27 12:52:18;;;;;;;2.17;1.85;;;10.20;98.40;;;;;;5013623;28;20061;-50
2023/04/27 12:54:43;;;;;;;5.28;2.20;;;10.20;99.10;;;;;;5013240;28;20398;-49